Drone Services

I am a FAA Part 107 Certified Commercial sUAS Pilot. My liability insurance coverage includes up to $10M aviation, and $10K invasion of privacy. My aerial photography and data collection services for the insurance industry include:

  • Roof damage inspections
  • Post-disaster claims inspections (hurricanes, storms, hail, floods, etc.)
  • Aerial foundation, chimney, and other building feature inspections to verify insurance claims
  • Aerial inspections of grounds and related ground features (i.e., pool damage, damage to auxiliary buildings such as sheds, stand alone guest houses greenhouses, etc.) to verify insurance claims

Current Aviation Weather

KLAS 201456Z 00000KT 10SM BKN095 OVC160 17/01 A2993 RMK AO2 SLP120 T01670006 53013

TAF AMD KLAS 201458Z 2015/2118 24005KT P6SM BKN100 OVC150 FM201700 17009KT P6SM VCSH SCT100 BKN120 FM202100 19012G20KT P6SM VCSH FEW080 BKN100 FM210400 24009KT P6SM -SHRA SCT060 BKN100 FM211200 19007KT P6SM FEW060 BKN100